createdAt,value
2022-08-03T00:01:47.781Z,29.64
2022-08-03T00:04:14.188Z,29.60
2022-08-03T00:06:40.598Z,29.54
2022-08-03T00:09:07.013Z,29.62
2022-08-03T00:11:33.442Z,29.67
2022-08-03T00:13:59.846Z,29.60
2022-08-03T00:16:26.249Z,29.63
2022-08-03T00:18:52.668Z,29.63
2022-08-03T00:21:19.070Z,29.64
2022-08-03T00:23:51.506Z,29.59
2022-08-03T00:26:19.228Z,29.63
2022-08-03T00:28:45.643Z,29.68
2022-08-03T00:31:13.539Z,29.62
2022-08-03T00:33:58.855Z,29.63
2022-08-03T00:36:26.399Z,29.61
2022-08-03T00:38:52.809Z,29.62
2022-08-03T00:41:19.221Z,29.60
2022-08-03T00:43:45.635Z,29.65
2022-08-03T00:46:12.032Z,29.56
2022-08-03T00:48:38.436Z,29.57
2022-08-03T00:51:04.852Z,29.56
2022-08-03T00:53:31.256Z,29.56
2022-08-03T00:55:57.664Z,29.54
2022-08-03T00:58:24.072Z,29.59
2022-08-03T01:00:50.538Z,29.59
2022-08-03T01:03:16.977Z,29.54
2022-08-03T01:05:43.446Z,29.57
2022-08-03T01:08:09.847Z,29.53
2022-08-03T01:10:36.254Z,29.51
2022-08-03T01:13:02.687Z,29.55
2022-08-03T01:15:29.095Z,29.49
2022-08-03T01:17:55.531Z,29.44
2022-08-03T01:20:21.951Z,29.53
2022-08-03T01:22:48.358Z,29.45
2022-08-03T01:25:14.777Z,29.52
2022-08-03T01:27:41.194Z,29.57
2022-08-03T01:30:07.597Z,29.54
2022-08-03T01:32:58.802Z,29.51
2022-08-03T01:35:20.391Z,29.49
2022-08-03T01:37:47.105Z,29.59
2022-08-03T01:40:13.522Z,29.49
2022-08-03T01:42:39.942Z,29.54
2022-08-03T01:45:06.353Z,29.49
2022-08-03T01:47:32.767Z,29.51
2022-08-03T01:49:59.178Z,29.44
2022-08-03T01:52:25.602Z,29.45
2022-08-03T01:54:52.023Z,29.46
2022-08-03T01:57:18.453Z,29.35
2022-08-03T01:59:44.872Z,29.40
2022-08-03T02:02:29.074Z,29.41
2022-08-03T02:04:57.780Z,29.42
2022-08-03T02:07:24.191Z,29.48
2022-08-03T02:09:50.605Z,29.53
2022-08-03T02:12:17.270Z,29.43
2022-08-03T02:14:43.822Z,29.49
2022-08-03T02:17:10.245Z,29.54
2022-08-03T02:19:36.658Z,29.52
2022-08-03T02:22:03.056Z,29.43
2022-08-03T02:24:30.545Z,29.53
2022-08-03T02:26:56.940Z,29.49
2022-08-03T02:29:40.109Z,29.52
2022-08-03T02:32:07.278Z,29.54
2022-08-03T02:34:33.691Z,29.42
2022-08-03T02:37:00.094Z,29.43
2022-08-03T02:39:26.512Z,29.55
2022-08-03T02:41:52.916Z,29.47
2022-08-03T02:44:19.541Z,29.43
2022-08-03T02:46:45.952Z,29.43
2022-08-03T02:49:40.478Z,29.40
2022-08-03T02:51:58.752Z,29.44
2022-08-03T02:54:25.167Z,29.41
2022-08-03T02:56:51.587Z,29.44
2022-08-03T02:59:17.984Z,29.44
2022-08-03T03:01:44.411Z,29.42
2022-08-03T03:04:10.822Z,29.41
2022-08-03T03:06:39.275Z,29.42
2022-08-03T03:09:06.221Z,29.37
2022-08-03T03:11:32.627Z,29.40
2022-08-03T03:13:59.031Z,29.42
2022-08-03T03:16:25.458Z,29.43
2022-08-03T03:18:51.865Z,29.35
2022-08-03T03:21:18.266Z,29.38
2022-08-03T03:23:44.684Z,29.39
2022-08-03T03:26:11.084Z,29.39
2022-08-03T03:28:37.505Z,29.34
2022-08-03T03:31:03.904Z,29.37
2022-08-03T03:33:30.469Z,29.38
2022-08-03T03:35:56.884Z,29.38
2022-08-03T03:38:23.286Z,29.37
2022-08-03T03:40:49.695Z,29.30
2022-08-03T03:43:16.100Z,29.38
2022-08-03T03:45:42.506Z,29.29
2022-08-03T03:48:08.901Z,29.37
2022-08-03T03:50:35.301Z,29.32
2022-08-03T03:53:01.716Z,29.36
2022-08-03T03:55:28.134Z,29.29
2022-08-03T03:57:54.546Z,29.24
2022-08-03T04:00:20.961Z,29.22
2022-08-03T04:02:47.381Z,29.18
2022-08-03T04:05:13.887Z,29.22
2022-08-03T04:07:40.291Z,29.16
2022-08-03T04:10:14.058Z,29.22
2022-08-03T04:12:49.927Z,29.29
2022-08-03T04:15:17.032Z,29.23
2022-08-03T04:17:43.437Z,29.20
2022-08-03T04:20:09.840Z,29.21
2022-08-03T04:22:36.250Z,29.18
2022-08-03T04:25:02.667Z,29.23
2022-08-03T04:27:29.177Z,29.24
2022-08-03T04:29:55.580Z,29.27
2022-08-03T04:32:21.991Z,29.22
2022-08-03T04:34:48.401Z,29.22
2022-08-03T04:37:14.837Z,29.22
2022-08-03T04:39:41.264Z,29.22
2022-08-03T04:42:09.072Z,29.19
2022-08-03T04:44:35.702Z,29.16
2022-08-03T04:47:02.109Z,29.25
2022-08-03T04:49:28.613Z,29.23
2022-08-03T04:51:55.074Z,29.22
2022-08-03T04:54:21.482Z,29.14
2022-08-03T04:56:47.907Z,29.18
2022-08-03T04:59:14.322Z,29.21
2022-08-03T05:01:40.789Z,29.17
2022-08-03T05:04:07.214Z,29.19
2022-08-03T05:06:33.635Z,29.14
2022-08-03T05:09:01.794Z,29.15
2022-08-03T05:11:28.302Z,29.19
2022-08-03T05:13:54.692Z,29.21
2022-08-03T05:16:21.083Z,29.26
2022-08-03T05:18:47.589Z,29.21
2022-08-03T05:21:14.015Z,29.26
2022-08-03T05:23:40.464Z,29.25
2022-08-03T05:26:06.863Z,29.19
2022-08-03T05:28:33.267Z,29.20
2022-08-03T05:30:59.671Z,29.21
2022-08-03T05:33:26.089Z,29.20
2022-08-03T05:35:56.038Z,29.16
2022-08-03T05:38:33.922Z,29.20
2022-08-03T05:41:21.889Z,29.21
2022-08-03T05:43:47.962Z,29.22
2022-08-03T05:46:14.382Z,29.20
2022-08-03T05:48:40.795Z,29.17
2022-08-03T05:51:07.213Z,29.19
2022-08-03T05:53:33.633Z,29.20
2022-08-03T05:56:03.445Z,29.21
2022-08-03T05:58:42.029Z,29.22
2022-08-03T06:01:08.520Z,29.21
2022-08-03T06:03:34.952Z,29.04
2022-08-03T06:06:01.366Z,28.83
2022-08-03T06:08:27.784Z,28.90
2022-08-03T06:10:54.190Z,29.04
2022-08-03T06:13:20.611Z,29.08
2022-08-03T06:15:47.014Z,29.12
2022-08-03T06:18:13.432Z,29.11
2022-08-03T06:20:39.842Z,29.20
2022-08-03T06:23:06.428Z,29.25
2022-08-03T06:25:33.984Z,29.19
2022-08-03T06:28:00.405Z,29.06
2022-08-03T06:30:26.906Z,29.04
2022-08-03T06:32:53.348Z,28.97
2022-08-03T06:35:19.752Z,29.03
2022-08-03T06:37:46.184Z,29.01
2022-08-03T06:40:13.775Z,29.00
2022-08-03T06:42:40.457Z,28.99
2022-08-03T06:45:06.865Z,29.00
2022-08-03T06:47:33.278Z,29.04
2022-08-03T06:50:12.730Z,29.00
2022-08-03T06:52:43.124Z,28.96
2022-08-03T06:55:09.537Z,29.01
2022-08-03T06:57:35.966Z,29.02
2022-08-03T07:00:11.052Z,29.02
2022-08-03T07:02:38.221Z,28.80
2022-08-03T07:05:05.517Z,28.73
2022-08-03T07:07:31.916Z,28.64
2022-08-03T07:09:58.496Z,28.53
2022-08-03T07:12:24.935Z,28.66
2022-08-03T07:14:51.346Z,28.59
2022-08-03T07:17:17.780Z,28.57
2022-08-03T07:19:44.181Z,28.63
2022-08-03T07:22:10.724Z,28.43
2022-08-03T07:24:37.247Z,28.58
2022-08-03T07:27:03.648Z,28.58
2022-08-03T07:29:30.048Z,28.68
2022-08-03T07:32:01.161Z,28.67
2022-08-03T07:34:27.569Z,28.63
2022-08-03T07:36:53.978Z,28.60
2022-08-03T07:39:20.384Z,28.50
2022-08-03T07:41:46.797Z,28.49
2022-08-03T07:44:13.213Z,28.44
2022-08-03T07:46:39.626Z,28.25
2022-08-03T07:49:06.166Z,28.34
2022-08-03T07:51:32.630Z,28.40
2022-08-03T07:53:59.058Z,28.34
2022-08-03T07:56:25.475Z,28.32
2022-08-03T07:58:51.888Z,28.43
2022-08-03T08:01:18.329Z,28.50
2022-08-03T08:03:52.831Z,28.51
2022-08-03T08:06:20.114Z,28.36
2022-08-03T08:08:46.521Z,28.35
2022-08-03T08:11:12.929Z,28.30
2022-08-03T08:13:39.339Z,28.24
2022-08-03T08:16:05.754Z,28.24
2022-08-03T08:18:32.156Z,28.33
2022-08-03T08:20:58.570Z,28.20
2022-08-03T08:23:42.336Z,28.34
2022-08-03T08:26:10.765Z,28.47
2022-08-03T08:28:37.177Z,28.44
2022-08-03T08:31:03.570Z,28.39
2022-08-03T08:36:16.362Z,28.55
2022-08-03T08:38:42.784Z,28.48
2022-08-03T08:41:09.184Z,28.55
2022-08-03T08:43:35.598Z,28.58
2022-08-03T08:46:02.001Z,28.60
2022-08-03T08:48:28.415Z,28.62
2022-08-03T08:50:54.923Z,28.66
2022-08-03T08:53:26.803Z,28.68
2022-08-03T08:55:59.227Z,28.68
2022-08-03T08:58:26.612Z,28.65
2022-08-03T09:00:53.390Z,28.61
2022-08-03T09:03:22.590Z,28.55
2022-08-03T09:05:56.584Z,28.42
2022-08-03T09:08:23.051Z,28.49
2022-08-03T09:10:49.461Z,28.55
2022-08-03T09:13:15.876Z,28.67
2022-08-03T09:15:42.286Z,28.69
2022-08-03T09:18:26.997Z,28.75
2022-08-03T09:21:03.803Z,28.75
2022-08-03T09:24:01.582Z,28.80
2022-08-03T09:26:29.033Z,28.83
2022-08-03T09:29:00.493Z,28.82
2022-08-03T09:31:28.314Z,28.81
2022-08-03T09:33:54.737Z,28.83
2022-08-03T09:36:21.149Z,28.87
2022-08-03T09:38:47.566Z,28.87
2022-08-03T09:41:16.777Z,28.83
2022-08-03T09:43:43.186Z,28.89
2022-08-03T09:46:09.593Z,28.85
2022-08-03T09:48:36.008Z,28.85
2022-08-03T09:51:13.478Z,28.86
2022-08-03T09:53:59.156Z,28.89
2022-08-03T09:56:34.445Z,28.89
2022-08-03T09:59:03.014Z,28.95
2022-08-03T10:01:29.476Z,28.99
2022-08-03T10:04:03.332Z,28.94
2022-08-03T10:06:30.975Z,28.93
2022-08-03T10:08:57.390Z,28.91
2022-08-03T10:11:23.798Z,28.89
2022-08-03T10:13:50.243Z,28.89
2022-08-03T10:16:25.811Z,28.94
2022-08-03T10:18:52.375Z,28.99
2022-08-03T10:21:18.783Z,29.00
2022-08-03T10:23:45.182Z,28.98
2022-08-03T10:26:11.610Z,28.97
2022-08-03T10:28:42.835Z,28.97
2022-08-03T10:31:11.343Z,28.98
2022-08-03T10:33:51.643Z,29.05
2022-08-03T10:36:19.220Z,29.06
2022-08-03T10:38:45.633Z,29.03
2022-08-03T10:41:12.044Z,28.98
2022-08-03T10:43:38.454Z,29.04
2022-08-03T10:46:04.924Z,29.01
2022-08-03T10:48:31.359Z,29.04
2022-08-03T10:50:57.782Z,29.08
2022-08-03T10:53:24.215Z,29.15
2022-08-03T10:55:50.633Z,29.18
2022-08-03T10:58:30.276Z,29.17
2022-08-03T11:00:57.118Z,29.20
2022-08-03T11:03:23.577Z,29.25
2022-08-03T11:05:49.978Z,29.26
2022-08-03T11:08:17.336Z,29.29
2022-08-03T11:10:43.803Z,29.30
2022-08-03T11:13:10.210Z,29.31
2022-08-03T11:15:36.621Z,29.32
2022-08-03T11:18:03.041Z,29.36
2022-08-03T11:20:33.633Z,29.39
2022-08-03T11:23:00.043Z,29.41
2022-08-03T11:25:53.645Z,29.39
2022-08-03T11:28:12.894Z,29.44
2022-08-03T11:30:41.142Z,29.49
2022-08-03T11:33:07.558Z,29.48
2022-08-03T11:35:33.972Z,29.48
2022-08-03T11:38:03.289Z,29.51
2022-08-03T11:40:31.537Z,29.45
2022-08-03T11:42:57.944Z,29.52
2022-08-03T11:45:24.364Z,29.62
2022-08-03T11:47:51.563Z,29.56
2022-08-03T11:50:18.060Z,29.57
2022-08-03T11:52:44.488Z,29.57
2022-08-03T11:55:10.902Z,29.59
2022-08-03T11:58:58.270Z,29.59
2022-08-03T12:00:23.712Z,29.64
2022-08-03T12:02:52.417Z,29.64
2022-08-03T12:05:18.883Z,29.78
2022-08-03T12:08:03.311Z,29.77
2022-08-03T12:10:31.698Z,29.75
2022-08-03T12:12:58.106Z,29.74
2022-08-03T12:15:25.070Z,29.71
2022-08-03T12:17:55.981Z,29.74
2022-08-03T12:20:34.955Z,29.72
2022-08-03T12:23:01.748Z,29.74
2022-08-03T12:25:38.460Z,29.75
2022-08-03T12:28:06.108Z,29.77
2022-08-03T12:30:52.506Z,29.75
2022-08-03T12:33:18.925Z,29.81
2022-08-03T12:35:52.254Z,29.81
2022-08-03T12:38:19.142Z,29.81
2022-08-03T12:40:45.563Z,29.83
2022-08-03T12:43:11.985Z,29.82
2022-08-03T12:45:38.401Z,29.84
2022-08-03T12:48:04.818Z,29.88
2022-08-03T12:50:31.769Z,30.07
2022-08-03T12:52:58.394Z,29.98
2022-08-03T12:55:24.812Z,29.95
2022-08-03T12:57:51.227Z,29.92
2022-08-03T13:00:28.767Z,29.96
2022-08-03T13:03:26.510Z,29.97
2022-08-03T13:05:42.181Z,30.12
2022-08-03T13:08:08.602Z,30.15
2022-08-03T13:10:37.968Z,30.17
2022-08-03T13:13:04.385Z,30.12
2022-08-03T13:15:33.528Z,30.07
2022-08-03T13:18:05.189Z,30.08
2022-08-03T13:20:31.600Z,30.10
2022-08-03T13:23:00.829Z,30.06
2022-08-03T13:25:27.507Z,30.18
2022-08-03T13:28:04.599Z,30.18
2022-08-03T13:30:32.049Z,30.13
2022-08-03T13:32:58.450Z,30.13
2022-08-03T13:35:25.232Z,30.15
2022-08-03T13:37:51.686Z,30.20
2022-08-03T13:40:18.156Z,30.16
2022-08-03T13:42:44.560Z,30.29
2022-08-03T13:45:11.020Z,30.24
2022-08-03T13:47:37.468Z,30.20
2022-08-03T13:50:03.904Z,30.21
2022-08-03T13:52:30.313Z,30.19
2022-08-03T13:54:56.732Z,30.18
2022-08-03T13:58:03.795Z,30.19
2022-08-03T14:00:09.546Z,30.21
2022-08-03T14:02:36.037Z,30.20
2022-08-03T14:05:02.457Z,30.24
2022-08-03T14:07:28.851Z,30.26
2022-08-03T14:09:55.252Z,30.24
2022-08-03T14:12:21.672Z,30.33
2022-08-03T14:14:48.088Z,30.38
2022-08-03T14:17:16.494Z,30.40
2022-08-03T14:19:53.590Z,30.37
2022-08-03T14:22:20.469Z,30.39
2022-08-03T14:24:46.883Z,30.39
2022-08-03T14:27:13.282Z,30.45
2022-08-03T14:29:39.698Z,30.45
2022-08-03T14:32:11.447Z,30.46
2022-08-03T14:34:39.197Z,30.51
2022-08-03T14:37:05.603Z,30.51
2022-08-03T14:39:58.312Z,30.48
2022-08-03T14:42:18.397Z,30.49
2022-08-03T14:44:44.805Z,30.49
2022-08-03T14:47:11.201Z,30.48
2022-08-03T14:50:37.134Z,30.51
2022-08-03T14:52:24.014Z,30.49
2022-08-03T14:54:50.428Z,30.49
2022-08-03T14:57:17.075Z,30.51
2022-08-03T14:59:55.666Z,30.55
2022-08-03T15:02:24.197Z,30.58
2022-08-03T15:04:50.890Z,30.56
2022-08-03T15:07:17.388Z,30.55
2022-08-03T15:09:43.869Z,30.56
2022-08-03T15:12:10.263Z,30.57
2022-08-03T15:14:37.811Z,30.60
2022-08-03T15:17:04.419Z,30.61
2022-08-03T15:20:00.218Z,30.61
2022-08-03T15:22:19.021Z,30.61
2022-08-03T15:24:46.957Z,30.64
2022-08-03T15:27:13.352Z,30.66
2022-08-03T15:30:05.082Z,30.73
2022-08-03T15:32:26.154Z,30.71
2022-08-03T15:34:52.791Z,30.69
2022-08-03T15:37:19.204Z,30.72
2022-08-03T15:39:59.073Z,30.75
2022-08-03T15:42:26.600Z,30.73
2022-08-03T15:44:53.870Z,30.77
2022-08-03T15:47:21.348Z,30.79
2022-08-03T15:49:47.966Z,30.76
2022-08-03T15:52:14.373Z,30.81
2022-08-03T15:54:40.792Z,30.86
2022-08-03T15:57:07.194Z,30.84
2022-08-03T15:59:33.595Z,30.83
2022-08-03T16:02:00.178Z,30.96
2022-08-03T16:04:26.683Z,31.02
2022-08-03T16:06:53.098Z,30.99
2022-08-03T16:09:23.629Z,30.99
2022-08-03T16:12:05.899Z,31.00
2022-08-03T16:14:51.804Z,31.00
2022-08-03T16:17:18.763Z,31.01
2022-08-03T16:19:45.394Z,30.99
2022-08-03T16:22:11.801Z,31.00
2022-08-03T16:24:40.736Z,31.00
2022-08-03T16:27:15.540Z,31.01
2022-08-03T16:29:53.544Z,31.03
2022-08-03T16:32:19.954Z,31.03
2022-08-03T16:34:46.379Z,31.05
2022-08-03T16:37:37.224Z,31.06
2022-08-03T16:39:59.169Z,31.09
2022-08-03T16:42:25.569Z,31.08
2022-08-03T16:44:51.976Z,31.09
2022-08-03T16:47:22.456Z,31.14
2022-08-03T16:49:53.663Z,31.18
2022-08-03T16:52:22.802Z,31.18
2022-08-03T16:54:50.629Z,31.18
2022-08-03T16:57:56.265Z,31.20
2022-08-03T17:00:05.729Z,31.21
2022-08-03T17:02:32.405Z,31.24
2022-08-03T17:04:58.858Z,31.24
2022-08-03T17:07:26.091Z,31.26
2022-08-03T17:09:56.280Z,31.27
2022-08-03T17:12:25.943Z,31.27
2022-08-03T17:14:53.525Z,31.29
2022-08-03T17:17:19.989Z,31.30
2022-08-03T17:19:47.077Z,31.30
2022-08-03T17:22:15.996Z,31.29
2022-08-03T17:24:42.650Z,31.24
2022-08-03T17:27:18.578Z,31.39
2022-08-03T17:29:55.488Z,31.52
2022-08-03T17:32:22.035Z,31.56
2022-08-03T17:34:50.862Z,31.56
2022-08-03T17:37:50.731Z,31.58
2022-08-03T17:40:04.787Z,31.59
2022-08-03T17:42:33.075Z,31.60
2022-08-03T17:45:01.963Z,31.59
2022-08-03T17:50:23.494Z,31.62
2022-08-03T17:52:51.855Z,31.62
2022-08-03T17:55:57.481Z,31.63
2022-08-03T17:58:04.669Z,31.65
2022-08-03T18:00:31.085Z,31.64
2022-08-03T18:02:57.917Z,31.66
2022-08-03T18:06:11.499Z,31.67
2022-08-03T18:08:12.951Z,31.63
2022-08-03T18:10:49.759Z,31.62
2022-08-03T18:13:16.562Z,31.59
2022-08-03T18:15:42.969Z,31.57
2022-08-03T18:18:10.743Z,31.53
2022-08-03T18:20:41.988Z,31.46
2022-08-03T18:23:08.872Z,31.41
2022-08-03T18:25:43.047Z,31.40
2022-08-03T18:28:15.707Z,31.39
2022-08-03T18:30:54.513Z,31.33
2022-08-03T18:34:18.615Z,31.29
2022-08-03T18:36:07.987Z,31.26
2022-08-03T18:38:35.638Z,31.23
2022-08-03T18:41:02.048Z,31.19
2022-08-03T18:43:46.141Z,31.15
2022-08-03T18:46:13.846Z,31.15
2022-08-03T18:48:40.680Z,31.12
2022-08-03T18:51:12.510Z,31.08
2022-08-03T18:54:02.425Z,31.08
2022-08-03T18:56:30.602Z,31.05
2022-08-03T18:59:02.255Z,31.04
2022-08-03T19:01:58.038Z,31.02
2022-08-03T19:04:15.514Z,31.01
2022-08-03T19:06:43.445Z,31.02
2022-08-03T19:09:10.580Z,31.03
2022-08-03T19:12:14.534Z,30.99
2022-08-03T19:14:28.805Z,30.97
2022-08-03T19:16:55.867Z,31.00
2022-08-03T19:19:22.679Z,30.98
2022-08-03T19:21:51.162Z,30.98
2022-08-03T19:24:17.573Z,30.96
2022-08-03T19:26:46.802Z,30.96
2022-08-03T19:29:18.591Z,30.93
2022-08-03T19:31:59.182Z,30.94
2022-08-03T19:34:26.340Z,30.92
2022-08-03T19:36:54.008Z,30.93
2022-08-03T19:39:20.442Z,30.92
2022-08-03T19:41:51.512Z,30.92
2022-08-03T19:44:19.901Z,30.91
2022-08-03T19:46:46.732Z,30.83
2022-08-03T19:49:15.162Z,30.82
2022-08-03T19:52:00.594Z,30.79
2022-08-03T19:54:29.519Z,31.08
2022-08-03T19:56:56.548Z,31.18
2022-08-03T19:59:22.980Z,31.22
2022-08-03T20:01:52.819Z,31.25
2022-08-03T20:04:20.481Z,31.20
2022-08-03T20:06:47.024Z,31.25
2022-08-03T20:09:16.087Z,31.23
2022-08-03T20:11:45.035Z,31.24
2022-08-03T20:14:11.648Z,30.64
2022-08-03T20:16:39.747Z,30.68
2022-08-03T20:19:14.156Z,31.04
2022-08-03T20:21:40.753Z,31.18
2022-08-03T20:24:23.710Z,31.19
2022-08-03T20:26:51.753Z,31.19
2022-08-03T20:29:19.831Z,31.17
2022-08-03T20:32:06.217Z,31.14
2022-08-03T20:34:32.869Z,31.14
2022-08-03T20:36:59.280Z,31.10
2022-08-03T20:39:26.445Z,31.11
2022-08-03T20:41:53.882Z,30.91
2022-08-03T20:44:25.953Z,30.92
2022-08-03T20:47:00.259Z,30.79
2022-08-03T20:49:27.222Z,30.98
2022-08-03T20:51:53.851Z,30.57
2022-08-03T20:54:23.105Z,30.79
2022-08-03T20:56:56.448Z,30.76
2022-08-03T20:59:22.857Z,30.73
2022-08-03T21:01:50.581Z,30.78
2022-08-03T21:04:21.100Z,30.73
2022-08-03T21:06:53.360Z,30.69
2022-08-03T21:09:20.045Z,30.70
2022-08-03T21:11:46.502Z,30.59
2022-08-03T21:13:05.549Z,31.61
2022-08-03T21:14:12.953Z,30.63
2022-08-03T21:16:39.362Z,30.72
2022-08-03T21:19:05.774Z,30.58
2022-08-03T21:21:32.186Z,30.63
2022-08-03T21:23:58.597Z,30.57
2022-08-03T21:26:25.016Z,30.57
2022-08-03T21:28:51.423Z,30.58
2022-08-03T21:31:24.249Z,30.52
2022-08-03T21:33:52.240Z,30.56
2022-08-03T21:36:18.649Z,30.54
2022-08-03T21:38:47.585Z,30.62
2022-08-03T21:41:23.142Z,30.62
2022-08-03T21:43:49.561Z,30.57
2022-08-03T21:46:15.966Z,30.62
2022-08-03T21:48:42.366Z,30.60
2022-08-03T21:51:08.780Z,30.57
2022-08-03T21:54:02.613Z,30.59
2022-08-03T21:56:21.585Z,30.49
2022-08-03T21:58:51.058Z,30.42
2022-08-03T22:01:18.382Z,30.45
2022-08-03T22:03:52.895Z,30.53
2022-08-03T22:06:20.246Z,30.57
2022-08-03T22:08:46.653Z,30.48
2022-08-03T22:11:13.057Z,30.46
2022-08-03T22:13:44.310Z,30.37
2022-08-03T22:16:11.049Z,30.43
2022-08-03T22:18:37.452Z,30.43
2022-08-03T22:21:03.856Z,30.49
2022-08-03T22:23:30.277Z,30.35
2022-08-03T22:25:56.708Z,30.41
2022-08-03T22:28:23.107Z,30.48
2022-08-03T22:30:49.515Z,30.47
2022-08-03T22:33:15.938Z,30.45
2022-08-03T22:35:47.208Z,30.49
2022-08-03T22:38:14.751Z,30.48
2022-08-03T22:40:41.166Z,30.46
2022-08-03T22:43:07.571Z,30.39
2022-08-03T22:46:09.159Z,30.34
2022-08-03T22:48:20.459Z,30.34
2022-08-03T22:50:46.871Z,30.31
2022-08-03T22:53:13.278Z,30.43
2022-08-03T22:55:39.689Z,30.47
2022-08-03T22:58:06.094Z,30.40
2022-08-03T23:00:32.514Z,30.26
2022-08-03T23:02:58.953Z,30.22
2022-08-03T23:06:02.460Z,30.27
2022-08-03T23:08:11.818Z,30.28
2022-08-03T23:10:40.724Z,30.21
2022-08-03T23:13:10.093Z,30.18
2022-08-03T23:15:36.529Z,30.19
2022-08-03T23:18:02.940Z,30.20
2022-08-03T23:20:29.349Z,30.17
2022-08-03T23:22:55.775Z,30.17
2022-08-03T23:25:22.187Z,30.19
2022-08-03T23:27:48.587Z,30.14
2022-08-03T23:30:31.250Z,30.06
2022-08-03T23:32:58.043Z,29.95
2022-08-03T23:35:24.448Z,29.80
2022-08-03T23:38:22.664Z,29.86
2022-08-03T23:40:51.349Z,29.97
2022-08-03T23:43:18.860Z,30.06
2022-08-03T23:46:04.398Z,30.09
2022-08-03T23:48:30.905Z,30.01
2022-08-03T23:50:57.312Z,30.03
2022-08-03T23:53:23.721Z,30.01
2022-08-03T23:55:50.150Z,30.00
2022-08-03T23:58:16.571Z,29.97
